createdAt,value
2019-03-15T00:00:41.108Z,97452.87
2019-03-15T00:03:14.147Z,97456.16
2019-03-15T00:05:47.537Z,97465.34
2019-03-15T00:08:17.899Z,97473.99
2019-03-15T00:10:48.763Z,97476.70
2019-03-15T00:13:22.588Z,97485.80
2019-03-15T00:15:53.188Z,97485.33
2019-03-15T00:18:23.527Z,97486.70
2019-03-15T00:20:54.134Z,97496.66
2019-03-15T00:23:27.789Z,97499.08
2019-03-15T00:25:58.498Z,97504.77
2019-03-15T00:28:29.121Z,97508.80
2019-03-15T00:31:02.155Z,97513.41
2019-03-15T00:33:35.230Z,97509.97
2019-03-15T00:36:07.503Z,97508.11
2019-03-15T00:38:40.432Z,97515.91
2019-03-15T00:41:15.307Z,97522.06
2019-03-15T00:43:49.578Z,97516.19
2019-03-15T00:46:23.378Z,97521.53
2019-03-15T00:48:54.098Z,97520.97
2019-03-15T00:51:26.179Z,97533.30
2019-03-15T00:53:56.384Z,97525.02
2019-03-15T00:56:26.647Z,97525.02
2019-03-15T00:58:59.519Z,97524.21
2019-03-15T01:01:31.894Z,97519.38
2019-03-15T01:04:02.639Z,97517.23
2019-03-15T01:06:34.122Z,97511.59
2019-03-15T01:09:07.286Z,97509.17
2019-03-15T01:11:37.627Z,97509.69
2019-03-15T01:14:08.636Z,97520.63
2019-03-15T01:16:42.105Z,97524.13
2019-03-15T01:19:12.960Z,97527.02
2019-03-15T01:21:44.918Z,97519.51
2019-03-15T01:24:17.223Z,97517.63
2019-03-15T01:26:47.570Z,97517.88
2019-03-15T01:29:17.867Z,97515.70
2019-03-15T01:31:48.543Z,97523.16
2019-03-15T01:34:19.188Z,97526.36
2019-03-15T01:36:50.015Z,97525.53
2019-03-15T01:39:22.267Z,97525.52
2019-03-15T01:41:52.488Z,97521.45
2019-03-15T01:44:22.975Z,97524.41
2019-03-15T01:46:54.578Z,97519.84
2019-03-15T01:49:30.783Z,97523.05
2019-03-15T01:52:04.058Z,97529.18
2019-03-15T01:54:34.866Z,97538.84
2019-03-15T01:57:05.411Z,97534.81
2019-03-15T01:59:40.377Z,97532.13
2019-03-15T02:02:12.592Z,97537.20
2019-03-15T02:04:44.948Z,97540.16
2019-03-15T02:07:17.937Z,97537.73
2019-03-15T02:09:50.238Z,97527.02
2019-03-15T02:12:23.375Z,97538.30
2019-03-15T02:14:54.148Z,97533.24
2019-03-15T02:17:26.847Z,97537.27
2019-03-15T02:20:01.363Z,97545.83
2019-03-15T02:22:33.622Z,97538.31
2019-03-15T02:25:06.061Z,97538.84
2019-03-15T02:27:36.879Z,97528.95
2019-03-15T02:30:09.959Z,97534.58
2019-03-15T02:32:46.801Z,97532.15
2019-03-15T02:35:17.395Z,97531.33
2019-03-15T02:37:51.315Z,97518.98
2019-03-15T02:40:21.721Z,97525.16
2019-03-15T02:42:53.793Z,97527.29
2019-03-15T02:45:28.075Z,97522.70
2019-03-15T02:47:58.765Z,97513.30
2019-03-15T02:50:29.616Z,97516.77
2019-03-15T02:53:03.034Z,97515.67
2019-03-15T02:55:33.764Z,97500.89
2019-03-15T02:58:04.491Z,97500.89
2019-03-15T03:00:35.079Z,97506.77
2019-03-15T03:03:07.099Z,97500.03
2019-03-15T03:05:42.133Z,97505.62
2019-03-15T03:08:14.051Z,97492.73
2019-03-15T03:10:46.570Z,97494.88
2019-03-15T03:13:17.375Z,97489.25
2019-03-15T03:15:49.582Z,97493.80
2019-03-15T03:18:19.889Z,97489.00
2019-03-15T03:20:52.100Z,97494.88
2019-03-15T03:23:24.382Z,97491.10
2019-03-15T03:25:57.349Z,97492.20
2019-03-15T03:28:28.731Z,97498.33
2019-03-15T03:34:40.445Z,97504.77
2019-03-15T03:37:11.009Z,97500.75
2019-03-15T03:39:41.424Z,97495.37
2019-03-15T03:42:12.224Z,97501.52
2019-03-15T03:44:43.612Z,97496.45
2019-03-15T03:47:13.908Z,97504.78
2019-03-15T03:49:44.182Z,97502.63
2019-03-15T03:52:15.158Z,97503.69
2019-03-15T03:54:45.420Z,97511.48
2019-03-15T03:57:17.560Z,97512.83
2019-03-15T03:59:48.412Z,97511.21
2019-03-15T04:02:19.082Z,97513.91
2019-03-15T04:04:50.198Z,97526.78
2019-03-15T04:07:21.059Z,97537.27
2019-03-15T04:09:56.211Z,97540.25
2019-03-15T04:12:28.489Z,97553.59
2019-03-15T04:14:59.397Z,97534.52
2019-03-15T04:17:31.914Z,97535.84
2019-03-15T04:20:05.328Z,97540.41
2019-03-15T04:22:36.195Z,97550.60
2019-03-15T04:25:07.409Z,97556.54
2019-03-15T04:27:38.164Z,97557.84
2019-03-15T04:30:13.114Z,97561.86
2019-03-15T04:32:43.695Z,97558.70
2019-03-15T04:35:14.539Z,97554.94
2019-03-15T04:37:45.119Z,97554.92
2019-03-15T04:40:15.855Z,97558.70
2019-03-15T04:42:47.619Z,97554.94
2019-03-15T04:45:20.950Z,97551.20
2019-03-15T04:47:51.710Z,97545.32
2019-03-15T04:50:24.771Z,97553.08
2019-03-15T04:52:55.155Z,97553.08
2019-03-15T04:55:25.448Z,97551.75
2019-03-15T04:57:56.139Z,97552.03
2019-03-15T05:00:28.464Z,97545.06
2019-03-15T05:03:02.683Z,97550.16
2019-03-15T05:05:35.048Z,97549.13
2019-03-15T05:08:05.723Z,97549.94
2019-03-15T05:10:38.182Z,97542.69
2019-03-15T05:13:13.117Z,97534.65
2019-03-15T05:15:43.535Z,97533.59
2019-03-15T05:18:14.323Z,97533.59
2019-03-15T05:20:46.562Z,97536.27
2019-03-15T05:23:19.499Z,97530.91
2019-03-15T05:25:52.565Z,97535.22
2019-03-15T05:28:23.989Z,97526.89
2019-03-15T05:30:56.433Z,97529.33
2019-03-15T05:33:30.528Z,97518.34
2019-03-15T05:36:01.244Z,97526.91
2019-03-15T05:38:34.683Z,97531.48
2019-03-15T05:41:04.150Z,97526.65
2019-03-15T05:43:37.499Z,97524.21
2019-03-15T05:46:09.230Z,97522.33
2019-03-15T05:48:40.160Z,97527.62
2019-03-15T05:51:12.976Z,97528.94
2019-03-15T05:53:43.585Z,97525.95
2019-03-15T05:56:16.025Z,97524.82
2019-03-15T05:58:47.158Z,97526.66
2019-03-15T06:01:18.059Z,97527.16
2019-03-15T06:03:56.698Z,97530.35
2019-03-15T06:06:27.409Z,97541.05
2019-03-15T06:08:57.729Z,97537.77
2019-03-15T06:11:31.555Z,97543.11
2019-03-15T06:14:03.781Z,97538.27
2019-03-15T06:16:35.984Z,97533.70
2019-03-15T06:19:09.131Z,97534.50
2019-03-15T06:21:40.400Z,97541.69
2019-03-15T06:24:11.037Z,97541.42
2019-03-15T06:26:41.591Z,97543.01
2019-03-15T06:29:14.610Z,97538.95
2019-03-15T06:31:47.010Z,97543.48
2019-03-15T06:34:17.771Z,97548.86
2019-03-15T06:36:50.061Z,97552.86
2019-03-15T06:39:22.808Z,97558.47
2019-03-15T06:41:55.494Z,97564.92
2019-03-15T06:44:27.173Z,97573.49
2019-03-15T06:47:00.624Z,97562.48
2019-03-15T06:49:31.750Z,97563.00
2019-03-15T06:52:04.550Z,97568.11
2019-03-15T06:54:35.348Z,97562.22
2019-03-15T06:57:07.051Z,97558.95
2019-03-15T06:59:37.684Z,97555.45
2019-03-15T07:02:10.806Z,97553.56
2019-03-15T07:04:41.794Z,97555.17
2019-03-15T07:07:15.252Z,97553.83
2019-03-15T07:09:49.160Z,97553.52
2019-03-15T07:12:19.475Z,97555.13
2019-03-15T07:14:53.348Z,97559.67
2019-03-15T07:17:24.051Z,97559.65
2019-03-15T07:19:54.808Z,97559.94
2019-03-15T07:22:26.984Z,97554.80
2019-03-15T07:24:58.316Z,97554.55
2019-03-15T07:27:29.248Z,97557.70
2019-03-15T07:30:01.491Z,97553.92
2019-03-15T07:32:33.545Z,97548.53
2019-03-15T07:35:04.389Z,97552.53
2019-03-15T07:37:40.901Z,97547.97
2019-03-15T07:40:12.953Z,97539.28
2019-03-15T07:42:43.725Z,97545.14
2019-03-15T07:45:15.803Z,97545.14
2019-03-15T07:47:46.536Z,97540.80
2019-03-15T07:50:17.639Z,97541.58
2019-03-15T07:52:50.209Z,97538.80
2019-03-15T07:55:21.013Z,97533.44
2019-03-15T07:57:54.650Z,97537.25
2019-03-15T08:00:25.859Z,97526.72
2019-03-15T08:02:56.480Z,97528.84
2019-03-15T08:05:27.500Z,97519.41
2019-03-15T08:08:00.331Z,97510.81
2019-03-15T08:10:31.657Z,97518.28
2019-03-15T08:13:04.085Z,97515.03
2019-03-15T08:15:34.799Z,97506.83
2019-03-15T08:18:07.203Z,97506.83
2019-03-15T08:20:42.476Z,97504.86
2019-03-15T08:23:13.507Z,97502.55
2019-03-15T08:25:45.738Z,97499.53
2019-03-15T08:28:16.476Z,97499.98
2019-03-15T08:30:48.029Z,97493.73
2019-03-15T08:33:21.427Z,97494.50
2019-03-15T08:35:52.467Z,97499.75
2019-03-15T08:38:25.274Z,97492.48
2019-03-15T08:40:56.775Z,97491.81
2019-03-15T08:43:31.841Z,97483.65
2019-03-15T08:46:03.189Z,97482.64
2019-03-15T08:48:37.260Z,97486.00
2019-03-15T08:51:10.490Z,97481.94
2019-03-15T08:53:41.320Z,97479.98
2019-03-15T08:56:14.699Z,97475.64
2019-03-15T08:58:46.555Z,97477.56
2019-03-15T09:01:19.708Z,97476.19
2019-03-15T09:03:53.566Z,97471.58
2019-03-15T09:06:25.059Z,97470.89
2019-03-15T09:08:55.850Z,97468.20
2019-03-15T09:11:26.396Z,97465.75
2019-03-15T09:13:58.666Z,97465.02
2019-03-15T09:16:30.578Z,97456.84
2019-03-15T09:19:02.882Z,97455.34
2019-03-15T09:21:33.606Z,97451.53
2019-03-15T09:24:04.194Z,97455.48
2019-03-15T09:26:35.306Z,97445.48
2019-03-15T09:29:07.649Z,97447.94
2019-03-15T09:31:47.563Z,97446.94
2019-03-15T09:34:13.743Z,97445.89
2019-03-15T09:36:50.083Z,97441.47
2019-03-15T09:39:17.218Z,97441.58
2019-03-15T09:41:51.291Z,97440.11
2019-03-15T09:44:22.577Z,97432.79
2019-03-15T09:46:53.592Z,97436.83
2019-03-15T09:49:24.581Z,97434.72
2019-03-15T09:52:00.648Z,97437.87
2019-03-15T09:54:33.042Z,97435.62
2019-03-15T09:57:03.670Z,97426.73
2019-03-15T09:59:36.334Z,97446.21
2019-03-15T10:02:07.993Z,97438.67
2019-03-15T10:04:43.161Z,97436.56
2019-03-15T10:07:17.098Z,97445.67
2019-03-15T10:09:48.915Z,97441.72
2019-03-15T10:12:21.330Z,97436.97
2019-03-15T10:14:52.162Z,97441.50
2019-03-15T10:17:23.227Z,97436.91
2019-03-15T10:19:55.346Z,97441.45
2019-03-15T10:22:26.220Z,97438.40
2019-03-15T10:24:56.780Z,97435.06
2019-03-15T10:27:27.620Z,97433.05
2019-03-15T10:30:08.862Z,97434.98
2019-03-15T10:32:43.426Z,97431.92
2019-03-15T10:35:17.196Z,97418.80
2019-03-15T10:37:47.726Z,97424.31
2019-03-15T10:40:22.474Z,97426.28
2019-03-15T10:42:55.474Z,97423.59
2019-03-15T10:45:28.237Z,97420.97
2019-03-15T10:48:00.687Z,97426.28
2019-03-15T10:50:32.363Z,97422.13
2019-03-15T10:53:03.966Z,97424.46
2019-03-15T10:55:38.156Z,97432.08
2019-03-15T10:58:09.017Z,97440.81
2019-03-15T11:00:41.480Z,97435.05
2019-03-15T11:03:13.186Z,97438.84
2019-03-15T11:05:43.647Z,97441.66
2019-03-15T11:08:15.802Z,97443.44
2019-03-15T11:10:48.126Z,97447.20
2019-03-15T11:13:18.803Z,97449.81
2019-03-15T11:15:49.350Z,97452.46
2019-03-15T11:18:19.786Z,97449.47
2019-03-15T11:20:54.501Z,97453.58
2019-03-15T11:23:27.050Z,97456.71
2019-03-15T11:25:58.255Z,97449.33
2019-03-15T11:28:32.107Z,97453.80
2019-03-15T11:31:03.093Z,97447.16
2019-03-15T11:33:36.168Z,97456.55
2019-03-15T11:36:09.440Z,97456.37
2019-03-15T11:38:41.670Z,97456.00
2019-03-15T11:41:12.879Z,97457.23
2019-03-15T11:43:45.991Z,97459.06
2019-03-15T11:46:18.164Z,97461.50
2019-03-15T11:48:48.530Z,97469.00
2019-03-15T11:51:19.466Z,97462.73
2019-03-15T11:53:51.792Z,97465.17
2019-03-15T11:56:27.186Z,97468.08
2019-03-15T11:59:01.056Z,97471.55
2019-03-15T12:01:33.998Z,97465.22
2019-03-15T12:04:07.832Z,97457.80
2019-03-15T12:06:40.120Z,97462.65
2019-03-15T12:09:12.248Z,97461.46
2019-03-15T12:11:45.040Z,97464.94
2019-03-15T12:14:15.746Z,97469.77
2019-03-15T12:16:46.527Z,97469.22
2019-03-15T12:19:17.655Z,97465.09
2019-03-15T12:21:49.207Z,97469.95
2019-03-15T12:24:20.618Z,97473.62
2019-03-15T12:26:51.711Z,97480.25
2019-03-15T12:29:22.831Z,97480.48
2019-03-15T12:31:56.016Z,97479.67
2019-03-15T12:34:30.482Z,97479.19
2019-03-15T12:37:02.045Z,97489.45
2019-03-15T12:39:36.051Z,97481.83
2019-03-15T12:42:08.449Z,97480.00
2019-03-15T12:44:39.753Z,97479.13
2019-03-15T12:47:12.704Z,97478.09
2019-03-15T12:49:43.784Z,97485.41
2019-03-15T12:52:14.951Z,97477.64
2019-03-15T12:54:49.185Z,97485.50
2019-03-15T12:57:21.310Z,97482.09
2019-03-15T12:59:53.317Z,97473.11
2019-03-15T13:02:28.629Z,97473.69
2019-03-15T13:05:00.431Z,97473.69
2019-03-15T13:07:35.133Z,97477.61
2019-03-15T13:10:10.250Z,97475.00
2019-03-15T13:12:41.804Z,97478.92
2019-03-15T13:15:14.307Z,97485.69
2019-03-15T13:17:46.002Z,97489.03
2019-03-15T13:20:17.986Z,97486.80
2019-03-15T13:22:48.647Z,97486.34
2019-03-15T13:25:24.394Z,97492.35
2019-03-15T13:27:55.297Z,97494.59
2019-03-15T13:30:26.150Z,97496.84
2019-03-15T13:32:56.922Z,97499.92
2019-03-15T13:35:29.374Z,97493.68
2019-03-15T13:38:02.908Z,97499.39
2019-03-15T13:40:33.573Z,97508.33
2019-03-15T13:43:06.691Z,97507.92
2019-03-15T13:45:37.729Z,97502.98
2019-03-15T13:48:09.833Z,97503.87
2019-03-15T13:50:41.082Z,97504.59
2019-03-15T13:53:13.569Z,97498.86
2019-03-15T13:55:47.528Z,97500.94
2019-03-15T13:58:18.183Z,97514.55
2019-03-15T14:00:48.984Z,97504.59
2019-03-15T14:03:24.093Z,97509.06
2019-03-15T14:05:55.092Z,97511.70
2019-03-15T14:08:28.787Z,97517.33
2019-03-15T14:11:00.906Z,97508.73
2019-03-15T14:13:31.633Z,97510.02
2019-03-15T14:16:03.695Z,97508.18
2019-03-15T14:18:38.696Z,97517.52
2019-03-15T14:21:11.048Z,97506.42
2019-03-15T14:23:41.719Z,97510.49
2019-03-15T14:26:13.137Z,97512.57
2019-03-15T14:28:47.037Z,97514.80
2019-03-15T14:31:21.660Z,97514.47
2019-03-15T14:33:55.143Z,97516.53
2019-03-15T14:36:26.466Z,97530.94
2019-03-15T14:39:02.893Z,97525.70
2019-03-15T14:41:33.859Z,97525.38
2019-03-15T14:44:06.266Z,97511.70
2019-03-15T14:46:43.521Z,97523.80
2019-03-15T14:49:14.324Z,97518.28
2019-03-15T14:51:45.146Z,97525.45
2019-03-15T14:54:16.749Z,97511.63
2019-03-15T14:56:47.604Z,97514.55
2019-03-15T14:59:20.488Z,97504.38
2019-03-15T15:02:06.516Z,97506.83
2019-03-15T15:04:39.038Z,97502.69
2019-03-15T15:07:10.213Z,97514.95
2019-03-15T15:09:42.296Z,97524.35
2019-03-15T15:12:13.126Z,97522.52
2019-03-15T15:14:46.382Z,97528.81
2019-03-15T15:17:16.831Z,97530.09
2019-03-15T15:19:47.491Z,97528.97
2019-03-15T15:22:18.165Z,97521.31
2019-03-15T15:24:49.045Z,97526.18
2019-03-15T15:27:21.512Z,97532.66
2019-03-15T15:29:52.391Z,97524.78
2019-03-15T15:32:25.559Z,97525.73
2019-03-15T15:34:57.976Z,97534.98
2019-03-15T15:37:28.963Z,97529.09
2019-03-15T15:40:00.964Z,97538.97
2019-03-15T15:42:36.826Z,97542.86
2019-03-15T15:45:07.586Z,97552.97
2019-03-15T15:47:41.594Z,97548.66
2019-03-15T15:50:11.899Z,97553.22
2019-03-15T15:52:44.628Z,97556.23
2019-03-15T15:55:16.905Z,97556.05
2019-03-15T15:57:50.774Z,97552.46
2019-03-15T16:00:23.124Z,97553.34
2019-03-15T16:02:55.568Z,97541.88
2019-03-15T16:05:26.739Z,97552.24
2019-03-15T16:07:57.637Z,97544.92
2019-03-15T16:10:29.894Z,97553.27
2019-03-15T16:13:04.193Z,97563.63
2019-03-15T16:15:36.904Z,97564.72
2019-03-15T16:18:07.478Z,97570.47
2019-03-15T16:20:38.191Z,97567.83
2019-03-15T16:23:11.717Z,97573.58
2019-03-15T16:25:42.422Z,97563.55
2019-03-15T16:28:31.489Z,97570.39
2019-03-15T16:30:55.830Z,97555.09
2019-03-15T16:33:26.540Z,97551.36
2019-03-15T16:35:58.899Z,97563.29
2019-03-15T16:38:34.407Z,97565.67
2019-03-15T16:41:06.466Z,97566.94
2019-03-15T16:43:44.058Z,97567.89
2019-03-15T16:46:14.523Z,97568.28
2019-03-15T16:48:45.512Z,97573.77
2019-03-15T16:51:19.788Z,97578.95
2019-03-15T16:53:49.143Z,97578.70
2019-03-15T16:56:20.797Z,97584.77
2019-03-15T16:58:51.374Z,97584.51
2019-03-15T17:01:25.285Z,97586.80
2019-03-15T17:04:00.424Z,97604.17
2019-03-15T17:06:32.782Z,97598.44
2019-03-15T17:09:06.976Z,97611.97
2019-03-15T17:11:37.647Z,97615.00
2019-03-15T17:14:08.341Z,97608.36
2019-03-15T17:16:39.521Z,97613.62
2019-03-15T17:19:10.722Z,97623.64
2019-03-15T17:21:44.129Z,97626.64
2019-03-15T17:24:14.794Z,97624.51
2019-03-15T17:26:45.672Z,97627.28
2019-03-15T17:29:16.727Z,97627.77
2019-03-15T17:31:47.440Z,97618.13
2019-03-15T17:34:18.174Z,97615.23
2019-03-15T17:36:49.647Z,97624.70
2019-03-15T17:39:22.101Z,97622.87
2019-03-15T17:41:53.647Z,97626.12
2019-03-15T17:44:27.793Z,97622.31
2019-03-15T17:47:04.243Z,97622.70
2019-03-15T17:49:38.153Z,97614.02
2019-03-15T17:52:10.345Z,97621.96
2019-03-15T17:54:46.688Z,97627.44
2019-03-15T17:57:17.778Z,97623.93
2019-03-15T18:00:11.123Z,97640.41
2019-03-15T18:02:43.527Z,97639.39
2019-03-15T18:05:14.773Z,97639.39
2019-03-15T18:07:45.361Z,97643.19
2019-03-15T18:10:17.102Z,97628.56
2019-03-15T18:12:49.003Z,97633.78
2019-03-15T18:15:25.475Z,97629.28
2019-03-15T18:17:59.792Z,97626.95
2019-03-15T18:20:31.459Z,97627.02
2019-03-15T18:23:02.205Z,97630.08
2019-03-15T18:25:33.573Z,97643.44
2019-03-15T18:28:05.975Z,97636.68
2019-03-15T18:30:37.052Z,97637.55
2019-03-15T18:33:07.727Z,97634.75
2019-03-15T18:35:38.587Z,97642.95
2019-03-15T18:38:10.061Z,97626.15
2019-03-15T18:40:43.645Z,97631.27
2019-03-15T18:43:18.660Z,97639.45
2019-03-15T18:45:50.993Z,97638.64
2019-03-15T18:48:21.833Z,97643.25
2019-03-15T18:50:54.766Z,97637.29
2019-03-15T18:53:25.672Z,97643.83
2019-03-15T18:55:58.247Z,97639.77
2019-03-15T18:58:30.623Z,97644.05
2019-03-15T19:01:04.600Z,97642.48
2019-03-15T19:03:35.908Z,97649.95
2019-03-15T19:06:06.997Z,97647.02
2019-03-15T19:08:41.864Z,97645.41
2019-03-15T19:11:13.017Z,97640.55
2019-03-15T19:13:44.416Z,97646.27
2019-03-15T19:16:20.585Z,97645.24
2019-03-15T19:18:51.413Z,97645.30
2019-03-15T19:21:27.444Z,97650.16
2019-03-15T19:23:58.067Z,97648.72
2019-03-15T19:26:29.203Z,97648.49
2019-03-15T19:28:59.911Z,97646.88
2019-03-15T19:31:31.661Z,97653.36
2019-03-15T19:34:02.803Z,97655.86
2019-03-15T19:36:33.802Z,97668.30
2019-03-15T19:39:05.986Z,97671.86
2019-03-15T19:41:40.572Z,97681.12
2019-03-15T19:44:13.025Z,97676.09
2019-03-15T19:46:45.391Z,97692.52
2019-03-15T19:49:22.254Z,97689.00
2019-03-15T19:51:54.578Z,97693.06
2019-03-15T19:54:31.762Z,97701.47
2019-03-15T19:57:03.239Z,97703.34
2019-03-15T19:59:34.128Z,97703.94
2019-03-15T20:02:05.015Z,97695.77
2019-03-15T20:04:39.773Z,97707.73
2019-03-15T20:07:17.398Z,97705.03
2019-03-15T20:09:48.313Z,97713.03
2019-03-15T20:12:19.423Z,97710.22
2019-03-15T20:14:51.788Z,97710.82
2019-03-15T20:17:22.803Z,97707.83
2019-03-15T20:19:56.877Z,97705.47
2019-03-15T20:22:29.341Z,97709.62
2019-03-15T20:25:00.457Z,97710.16
2019-03-15T20:27:31.383Z,97717.91
2019-03-15T20:30:20.576Z,97719.69
2019-03-15T20:32:41.346Z,97717.21
2019-03-15T20:35:13.840Z,97725.70
2019-03-15T20:37:47.848Z,97737.00
2019-03-15T20:40:19.131Z,97729.09
2019-03-15T20:42:51.233Z,97738.88
2019-03-15T20:45:22.186Z,97739.70
2019-03-15T20:47:55.254Z,97740.22
2019-03-15T20:50:30.701Z,97736.66
2019-03-15T20:53:08.584Z,97746.22
2019-03-15T20:55:36.934Z,97736.50
2019-03-15T20:58:08.173Z,97743.63
2019-03-15T21:00:39.222Z,97736.00
2019-03-15T21:03:11.161Z,97745.66
2019-03-15T21:05:48.938Z,97741.98
2019-03-15T21:08:19.640Z,97736.63
2019-03-15T21:10:52.554Z,97748.42
2019-03-15T21:13:24.868Z,97747.92
2019-03-15T21:15:55.634Z,97754.68
2019-03-15T21:18:26.272Z,97759.33
2019-03-15T21:20:57.127Z,97764.56
2019-03-15T21:23:29.640Z,97757.75
2019-03-15T21:26:01.513Z,97767.94
2019-03-15T21:28:31.979Z,97760.14
2019-03-15T21:31:05.006Z,97761.80
2019-03-15T21:33:40.754Z,97759.65
2019-03-15T21:36:14.908Z,97766.72
2019-03-15T21:38:52.893Z,97754.37
2019-03-15T21:41:25.794Z,97769.47
2019-03-15T21:43:56.651Z,97770.56
2019-03-15T21:46:28.293Z,97776.51
2019-03-15T21:48:59.421Z,97779.47
2019-03-15T21:51:31.119Z,97776.77
2019-03-15T21:54:09.830Z,97775.68
2019-03-15T21:56:47.029Z,97783.21
2019-03-15T21:59:17.789Z,97785.06
2019-03-15T22:01:50.815Z,97783.97
2019-03-15T22:04:21.591Z,97781.31
2019-03-15T22:06:53.166Z,97788.07
2019-03-15T22:09:25.267Z,97789.92
2019-03-15T22:11:56.108Z,97786.41
2019-03-15T22:14:28.044Z,97789.69
2019-03-15T22:17:00.048Z,97783.79
2019-03-15T22:19:32.276Z,97790.95
2019-03-15T22:22:06.256Z,97792.88
2019-03-15T22:24:38.725Z,97792.62
2019-03-15T22:27:09.779Z,97794.23
2019-03-15T22:29:53.025Z,97796.63
2019-03-15T22:32:13.530Z,97793.16
2019-03-15T22:34:46.008Z,97788.56
2019-03-15T22:37:18.506Z,97791.27
2019-03-15T22:39:51.827Z,97787.48
2019-03-15T22:42:22.803Z,97787.22
2019-03-15T22:44:53.306Z,97789.42
2019-03-15T22:47:26.985Z,97789.87
2019-03-15T22:49:57.925Z,97786.12
2019-03-15T22:52:30.528Z,97800.67
2019-03-15T22:55:01.573Z,97796.13
2019-03-15T22:57:35.215Z,97808.29
2019-03-15T23:00:09.552Z,97800.50
2019-03-15T23:02:42.320Z,97802.34
2019-03-15T23:05:12.868Z,97799.88
2019-03-15T23:07:45.230Z,97810.99
2019-03-15T23:10:16.651Z,97802.08
2019-03-15T23:12:48.351Z,97809.64
2019-03-15T23:15:18.807Z,97803.69
2019-03-15T23:17:51.548Z,97805.27
2019-03-15T23:20:23.772Z,97800.13
2019-03-15T23:22:56.182Z,97800.13
2019-03-15T23:25:27.218Z,97800.67
2019-03-15T23:27:58.482Z,97812.84
2019-03-15T23:30:29.209Z,97816.89
2019-03-15T23:33:02.897Z,97819.10
2019-03-15T23:35:48.784Z,97819.91
2019-03-15T23:38:09.868Z,97822.61
2019-03-15T23:40:42.089Z,97830.72
2019-03-15T23:43:19.083Z,97834.28
2019-03-15T23:45:49.976Z,97836.98
2019-03-15T23:48:23.061Z,97841.53
2019-03-15T23:50:53.583Z,97830.22
2019-03-15T23:53:24.437Z,97831.36
2019-03-15T23:55:55.172Z,97839.19
2019-03-15T23:58:27.692Z,97842.71
